sensor_id;sensor_type;location;lat;lon;timestamp;pressure;altitude;pressure_sealevel;temperature;humidity
65227;BME280;51805;49.012;12.104;2023-02-04T00:00:40;98514.44;;;22.15;48.41
65227;BME280;51805;49.012;12.104;2023-02-04T00:03:05;98516.63;;;22.18;48.33
65227;BME280;51805;49.012;12.104;2023-02-04T00:05:30;98512.31;;;22.17;48.29
65227;BME280;51805;49.012;12.104;2023-02-04T00:07:55;98512.03;;;22.19;48.29
65227;BME280;51805;49.012;12.104;2023-02-04T00:10:20;98531.25;;;22.17;48.24
65227;BME280;51805;49.012;12.104;2023-02-04T00:12:45;98528.28;;;22.19;48.33
65227;BME280;51805;49.012;12.104;2023-02-04T00:15:10;98527.47;;;22.18;48.21
65227;BME280;51805;49.012;12.104;2023-02-04T00:17:35;98527.16;;;22.15;48.37
65227;BME280;51805;49.012;12.104;2023-02-04T00:20:01;98515.81;;;22.13;48.37
65227;BME280;51805;49.012;12.104;2023-02-04T00:22:26;98528.50;;;22.12;48.42
65227;BME280;51805;49.012;12.104;2023-02-04T00:24:51;98519.03;;;22.15;48.36
65227;BME280;51805;49.012;12.104;2023-02-04T00:27:16;98521.22;;;22.13;48.40
65227;BME280;51805;49.012;12.104;2023-02-04T00:29:41;98531.78;;;22.14;48.24
65227;BME280;51805;49.012;12.104;2023-02-04T00:32:06;98536.38;;;22.14;48.33
65227;BME280;51805;49.012;12.104;2023-02-04T00:34:31;98532.84;;;22.13;48.14
65227;BME280;51805;49.012;12.104;2023-02-04T00:36:57;98551.78;;;22.13;48.30
65227;BME280;51805;49.012;12.104;2023-02-04T00:39:22;98546.91;;;22.10;48.31
65227;BME280;51805;49.012;12.104;2023-02-04T00:41:47;98552.88;;;22.12;48.34
65227;BME280;51805;49.012;12.104;2023-02-04T00:44:12;98566.63;;;22.06;48.48
65227;BME280;51805;49.012;12.104;2023-02-04T00:46:37;98592.91;;;22.05;48.46
65227;BME280;51805;49.012;12.104;2023-02-04T00:49:02;98572.88;;;22.06;48.53
65227;BME280;51805;49.012;12.104;2023-02-04T00:51:27;98585.84;;;22.04;48.52
65227;BME280;51805;49.012;12.104;2023-02-04T00:53:52;98585.06;;;22.04;48.72
65227;BME280;51805;49.012;12.104;2023-02-04T00:56:18;98589.63;;;22.03;48.72
65227;BME280;51805;49.012;12.104;2023-02-04T00:58:43;98595.06;;;22.03;48.83
65227;BME280;51805;49.012;12.104;2023-02-04T01:01:08;98597.81;;;22.08;48.57
65227;BME280;51805;49.012;12.104;2023-02-04T01:03:33;98602.34;;;22.03;48.72
65227;BME280;51805;49.012;12.104;2023-02-04T01:05:58;98604.25;;;22.02;48.66
65227;BME280;51805;49.012;12.104;2023-02-04T01:08:23;98602.91;;;22.05;48.76
65227;BME280;51805;49.012;12.104;2023-02-04T01:10:48;98615.88;;;22.03;48.80
65227;BME280;51805;49.012;12.104;2023-02-04T01:13:13;98613.44;;;22.01;48.81
65227;BME280;51805;49.012;12.104;2023-02-04T01:15:39;98614.25;;;22.02;48.53
65227;BME280;51805;49.012;12.104;2023-02-04T01:18:04;98615.09;;;22.02;48.82
65227;BME280;51805;49.012;12.104;2023-02-04T01:20:29;98621.03;;;21.99;48.74
65227;BME280;51805;49.012;12.104;2023-02-04T01:22:54;98625.59;;;21.99;48.93
65227;BME280;51805;49.012;12.104;2023-02-04T01:25:19;98624.78;;;21.98;48.69
65227;BME280;51805;49.012;12.104;2023-02-04T01:27:44;98625.31;;;21.95;48.84
65227;BME280;51805;49.012;12.104;2023-02-04T01:30:11;98624.22;;;21.96;48.90
65227;BME280;51805;49.012;12.104;2023-02-04T01:32:36;98645.34;;;21.94;48.84
65227;BME280;51805;49.012;12.104;2023-02-04T01:35:01;98633.16;;;21.97;48.77
65227;BME280;51805;49.012;12.104;2023-02-04T01:37:27;98638.25;;;21.93;48.95
65227;BME280;51805;49.012;12.104;2023-02-04T01:39:52;98639.91;;;21.94;48.82
65227;BME280;51805;49.012;12.104;2023-02-04T01:42:17;98639.34;;;21.92;48.89
65227;BME280;51805;49.012;12.104;2023-02-04T01:44:42;98633.69;;;21.94;48.67
65227;BME280;51805;49.012;12.104;2023-02-04T01:47:08;98639.91;;;21.94;48.84
65227;BME280;51805;49.012;12.104;2023-02-04T01:49:33;98634.19;;;21.91;48.86
65227;BME280;51805;49.012;12.104;2023-02-04T01:51:58;98637.16;;;21.89;49.07
65227;BME280;51805;49.012;12.104;2023-02-04T01:54:24;98646.13;;;21.95;48.71
65227;BME280;51805;49.012;12.104;2023-02-04T01:56:50;98647.72;;;21.91;49.03
65227;BME280;51805;49.012;12.104;2023-02-04T01:59:15;98656.09;;;21.89;48.89
65227;BME280;51805;49.012;12.104;2023-02-04T02:01:42;98649.59;;;21.90;49.15
65227;BME280;51805;49.012;12.104;2023-02-04T02:04:08;98659.91;;;21.88;48.95
65227;BME280;51805;49.012;12.104;2023-02-04T02:06:34;98657.72;;;21.85;49.04
65227;BME280;51805;49.012;12.104;2023-02-04T02:09:00;98663.13;;;21.90;48.96
65227;BME280;51805;49.012;12.104;2023-02-04T02:11:26;98659.91;;;21.88;48.92
65227;BME280;51805;49.012;12.104;2023-02-04T02:13:51;98652.03;;;21.87;49.07
65227;BME280;51805;49.012;12.104;2023-02-04T02:16:16;98661.47;;;21.84;49.07
65227;BME280;51805;49.012;12.104;2023-02-04T02:18:42;98660.69;;;21.84;49.18
65227;BME280;51805;49.012;12.104;2023-02-04T02:21:08;98663.13;;;21.85;48.84
65227;BME280;51805;49.012;12.104;2023-02-04T02:23:45;98659.03;;;21.83;49.20
65227;BME280;51805;49.012;12.104;2023-02-04T02:26:11;98654.44;;;21.83;49.18
65227;BME280;51805;49.012;12.104;2023-02-04T02:28:37;98657.66;;;21.80;49.21
65227;BME280;51805;49.012;12.104;2023-02-04T02:31:02;98673.06;;;21.80;49.05
65227;BME280;51805;49.012;12.104;2023-02-04T02:33:27;98661.19;;;21.81;48.96
65227;BME280;51805;49.012;12.104;2023-02-04T02:35:52;98663.91;;;21.81;48.97
65227;BME280;51805;49.012;12.104;2023-02-04T02:38:18;98671.19;;;21.80;49.01
65227;BME280;51805;49.012;12.104;2023-02-04T02:40:44;98683.09;;;21.79;49.28
65227;BME280;51805;49.012;12.104;2023-02-04T02:43:17;98691.22;;;21.79;49.22
65227;BME280;51805;49.012;12.104;2023-02-04T02:45:43;98691.69;;;21.76;49.50
65227;BME280;51805;49.012;12.104;2023-02-04T02:48:09;98692.53;;;21.77;49.22
65227;BME280;51805;49.012;12.104;2023-02-04T02:50:37;98689.25;;;21.75;49.29
65227;BME280;51805;49.012;12.104;2023-02-04T02:53:02;98681.97;;;21.75;49.10
65227;BME280;51805;49.012;12.104;2023-02-04T02:55:28;98688.41;;;21.74;49.33
65227;BME280;51805;49.012;12.104;2023-02-04T02:57:53;98692.19;;;21.73;49.15
65227;BME280;51805;49.012;12.104;2023-02-04T03:00:23;98692.19;;;21.73;49.07
65227;BME280;51805;49.012;12.104;2023-02-04T03:03:11;98692.94;;;21.69;49.27
65227;BME280;51805;49.012;12.104;2023-02-04T03:05:40;98695.97;;;21.72;49.39
65227;BME280;51805;49.012;12.104;2023-02-04T03:08:06;98697.31;;;21.70;49.21
65227;BME280;51805;49.012;12.104;2023-02-04T03:10:32;98700.78;;;21.65;49.38
65227;BME280;51805;49.012;12.104;2023-02-04T03:12:57;98705.69;;;21.68;49.26
65227;BME280;51805;49.012;12.104;2023-02-04T03:15:23;98719.72;;;21.65;49.23
65227;BME280;51805;49.012;12.104;2023-02-04T03:17:48;98713.22;;;21.66;49.43
65227;BME280;51805;49.012;12.104;2023-02-04T03:20:14;98722.41;;;21.65;49.37
65227;BME280;51805;49.012;12.104;2023-02-04T03:22:39;98716.19;;;21.65;49.26
65227;BME280;51805;49.012;12.104;2023-02-04T03:25:05;98705.38;;;21.65;49.43
65227;BME280;51805;49.012;12.104;2023-02-04T03:27:30;98712.66;;;21.64;49.38
65227;BME280;51805;49.012;12.104;2023-02-04T03:29:56;98719.66;;;21.60;49.45
65227;BME280;51805;49.012;12.104;2023-02-04T03:32:21;98716.28;;;21.48;49.46
65227;BME280;51805;49.012;12.104;2023-02-04T03:34:46;98733.75;;;21.62;49.28
65227;BME280;51805;49.012;12.104;2023-02-04T03:37:11;98746.72;;;21.60;49.51
65227;BME280;51805;49.012;12.104;2023-02-04T03:39:36;98753.75;;;21.61;49.64
65227;BME280;51805;49.012;12.104;2023-02-04T03:42:01;98755.91;;;21.59;49.32
65227;BME280;51805;49.012;12.104;2023-02-04T03:44:26;98752.63;;;21.57;49.58
65227;BME280;51805;49.012;12.104;2023-02-04T03:46:52;98759.34;;;21.55;49.52
65227;BME280;51805;49.012;12.104;2023-02-04T03:49:17;98772.06;;;21.54;49.60
65227;BME280;51805;49.012;12.104;2023-02-04T03:51:42;98777.22;;;21.56;49.64
65227;BME280;51805;49.012;12.104;2023-02-04T03:54:07;98775.31;;;21.56;49.60
65227;BME280;51805;49.012;12.104;2023-02-04T03:56:32;98790.50;;;21.57;49.61
65227;BME280;51805;49.012;12.104;2023-02-04T03:58:58;98795.34;;;21.55;49.75
65227;BME280;51805;49.012;12.104;2023-02-04T04:01:23;98797.22;;;21.55;49.56
65227;BME280;51805;49.012;12.104;2023-02-04T04:03:48;98798.53;;;21.52;49.61
65227;BME280;51805;49.012;12.104;2023-02-04T04:06:13;98793.63;;;21.49;49.74
65227;BME280;51805;49.012;12.104;2023-02-04T04:08:38;98792.00;;;21.48;49.67
65227;BME280;51805;49.012;12.104;2023-02-04T04:11:03;98796.84;;;21.46;49.81
65227;BME280;51805;49.012;12.104;2023-02-04T04:13:28;98799.88;;;21.50;49.60
65227;BME280;51805;49.012;12.104;2023-02-04T04:15:54;98794.72;;;21.48;49.77
65227;BME280;51805;49.012;12.104;2023-02-04T04:18:19;98796.28;;;21.44;49.75
65227;BME280;51805;49.012;12.104;2023-02-04T04:20:44;98802.00;;;21.48;49.65
65227;BME280;51805;49.012;12.104;2023-02-04T04:23:09;98801.69;;;21.44;49.83
65227;BME280;51805;49.012;12.104;2023-02-04T04:25:34;98813.00;;;21.41;49.84
65227;BME280;51805;49.012;12.104;2023-02-04T04:27:59;98808.16;;;21.43;49.76
65227;BME280;51805;49.012;12.104;2023-02-04T04:30:24;98821.69;;;21.43;49.78
65227;BME280;51805;49.012;12.104;2023-02-04T04:32:50;98824.41;;;21.43;49.83
65227;BME280;51805;49.012;12.104;2023-02-04T04:35:15;98817.63;;;21.40;49.67
65227;BME280;51805;49.012;12.104;2023-02-04T04:37:40;98816.78;;;21.40;49.92
65227;BME280;51805;49.012;12.104;2023-02-04T04:40:05;98821.03;;;21.36;50.00
65227;BME280;51805;49.012;12.104;2023-02-04T04:42:30;98830.31;;;21.40;49.82
65227;BME280;51805;49.012;12.104;2023-02-04T04:44:55;98833.84;;;21.40;49.65
65227;BME280;51805;49.012;12.104;2023-02-04T04:47:20;98849.50;;;21.38;49.83
65227;BME280;51805;49.012;12.104;2023-02-04T04:49:46;98843.75;;;21.35;49.86
65227;BME280;51805;49.012;12.104;2023-02-04T04:52:11;98851.88;;;21.35;49.89
65227;BME280;51805;49.012;12.104;2023-02-04T04:54:36;98852.69;;;21.35;49.79
65227;BME280;51805;49.012;12.104;2023-02-04T04:57:01;98862.09;;;21.33;49.93
65227;BME280;51805;49.012;12.104;2023-02-04T04:59:26;98869.97;;;21.34;49.79
65227;BME280;51805;49.012;12.104;2023-02-04T05:01:51;98874.00;;;21.32;49.89
65227;BME280;51805;49.012;12.104;2023-02-04T05:04:16;98866.97;;;21.31;50.02
65227;BME280;51805;49.012;12.104;2023-02-04T05:06:42;98868.59;;;21.32;49.95
65227;BME280;51805;49.012;12.104;2023-02-04T05:09:07;98868.00;;;21.30;49.94
65227;BME280;51805;49.012;12.104;2023-02-04T05:11:32;98879.41;;;21.32;49.98
65227;BME280;51805;49.012;12.104;2023-02-04T05:13:57;98888.59;;;21.31;49.85
65227;BME280;51805;49.012;12.104;2023-02-04T05:16:22;98895.28;;;21.28;50.04
65227;BME280;51805;49.012;12.104;2023-02-04T05:18:47;98895.06;;;21.30;50.00
65227;BME280;51805;49.012;12.104;2023-02-04T05:21:13;98903.16;;;21.30;49.90
65227;BME280;51805;49.012;12.104;2023-02-04T05:23:38;98903.41;;;21.28;49.98
65227;BME280;51805;49.012;12.104;2023-02-04T05:26:03;98916.13;;;21.28;49.97
65227;BME280;51805;49.012;12.104;2023-02-04T05:28:28;98925.88;;;21.29;49.88
65227;BME280;51805;49.012;12.104;2023-02-04T05:30:53;98950.19;;;21.29;49.96
65227;BME280;51805;49.012;12.104;2023-02-04T05:33:18;98986.19;;;21.29;49.97
65227;BME280;51805;49.012;12.104;2023-02-04T05:35:44;98992.13;;;21.31;49.91
65227;BME280;51805;49.012;12.104;2023-02-04T05:38:09;99015.09;;;21.29;49.94
65227;BME280;51805;49.012;12.104;2023-02-04T05:40:34;99020.00;;;21.32;49.88
65227;BME280;51805;49.012;12.104;2023-02-04T05:42:59;99020.00;;;21.32;49.80
65227;BME280;51805;49.012;12.104;2023-02-04T05:45:24;99016.22;;;21.33;49.85
65227;BME280;51805;49.012;12.104;2023-02-04T05:47:50;99020.84;;;21.32;49.81
65227;BME280;51805;49.012;12.104;2023-02-04T05:50:15;99024.94;;;21.35;49.74
65227;BME280;51805;49.012;12.104;2023-02-04T05:52:40;99026.81;;;21.34;49.73
65227;BME280;51805;49.012;12.104;2023-02-04T05:55:05;99027.03;;;21.33;49.71
65227;BME280;51805;49.012;12.104;2023-02-04T05:57:31;99040.31;;;21.34;49.71
65227;BME280;51805;49.012;12.104;2023-02-04T05:59:56;99044.44;;;21.37;49.59
65227;BME280;51805;49.012;12.104;2023-02-04T06:02:21;99055.25;;;21.37;49.89
65227;BME280;51805;49.012;12.104;2023-02-04T06:04:46;99057.72;;;21.38;49.69
65227;BME280;51805;49.012;12.104;2023-02-04T06:07:11;99058.28;;;21.40;49.65
65227;BME280;51805;49.012;12.104;2023-02-04T06:09:36;99064.25;;;21.42;49.57
65227;BME280;51805;49.012;12.104;2023-02-04T06:12:02;99077.53;;;21.44;49.60
65227;BME280;51805;49.012;12.104;2023-02-04T06:14:27;99076.00;;;21.48;49.47
65227;BME280;51805;49.012;12.104;2023-02-04T06:19:32;99076.50;;;21.45;49.61
65227;BME280;51805;49.012;12.104;2023-02-04T06:21:57;99078.69;;;21.48;49.60
65227;BME280;51805;49.012;12.104;2023-02-04T06:24:23;99089.53;;;21.48;49.41
65227;BME280;51805;49.012;12.104;2023-02-04T06:26:48;99100.09;;;21.50;49.42
65227;BME280;51805;49.012;12.104;2023-02-04T06:29:13;99098.19;;;21.50;49.55
65227;BME280;51805;49.012;12.104;2023-02-04T06:31:38;99116.88;;;21.52;49.68
65227;BME280;51805;49.012;12.104;2023-02-04T06:34:04;99129.34;;;21.53;49.36
65227;BME280;51805;49.012;12.104;2023-02-04T06:36:29;99128.03;;;21.55;49.41
65227;BME280;51805;49.012;12.104;2023-02-04T06:38:54;99132.63;;;21.55;49.37
65227;BME280;51805;49.012;12.104;2023-02-04T06:41:19;99131.22;;;21.52;49.52
65227;BME280;51805;49.012;12.104;2023-02-04T06:43:44;99141.66;;;21.60;49.25
65227;BME280;51805;49.012;12.104;2023-02-04T06:46:10;99140.03;;;21.59;49.33
65227;BME280;51805;49.012;12.104;2023-02-04T06:48:35;99147.06;;;21.60;49.27
65227;BME280;51805;49.012;12.104;2023-02-04T06:51:00;99145.50;;;21.64;49.20
65227;BME280;51805;49.012;12.104;2023-02-04T06:53:25;99148.78;;;21.66;49.32
65227;BME280;51805;49.012;12.104;2023-02-04T06:55:50;99155.28;;;21.65;49.23
65227;BME280;51805;49.012;12.104;2023-02-04T06:58:15;99159.38;;;21.68;49.00
65227;BME280;51805;49.012;12.104;2023-02-04T07:00:40;99165.59;;;21.68;49.08
65227;BME280;51805;49.012;12.104;2023-02-04T07:03:05;99165.59;;;21.68;49.29
65227;BME280;51805;49.012;12.104;2023-02-04T07:05:30;99174.78;;;21.67;49.25
65227;BME280;51805;49.012;12.104;2023-02-04T07:07:56;99175.69;;;21.73;49.10
65227;BME280;51805;49.012;12.104;2023-02-04T07:10:21;99178.06;;;21.69;49.23
65227;BME280;51805;49.012;12.104;2023-02-04T07:12:46;99184.41;;;21.75;49.07
65227;BME280;51805;49.012;12.104;2023-02-04T07:15:11;99191.69;;;21.74;48.99
65227;BME280;51805;49.012;12.104;2023-02-04T07:17:36;99205.81;;;21.76;48.94
65227;BME280;51805;49.012;12.104;2023-02-04T07:20:02;99208.50;;;21.76;49.28
65227;BME280;51805;49.012;12.104;2023-02-04T07:22:27;99228.38;;;21.82;48.96
65227;BME280;51805;49.012;12.104;2023-02-04T07:24:52;99222.13;;;21.81;48.88
65227;BME280;51805;49.012;12.104;2023-02-04T07:27:17;99230.25;;;21.81;49.10
65227;BME280;51805;49.012;12.104;2023-02-04T07:29:42;99241.66;;;21.83;48.82
65227;BME280;51805;49.012;12.104;2023-02-04T07:32:07;99245.75;;;21.86;48.75
65227;BME280;51805;49.012;12.104;2023-02-04T07:34:32;99252.25;;;21.85;48.88
65227;BME280;51805;49.012;12.104;2023-02-04T07:36:57;99256.81;;;21.84;48.80
65227;BME280;51805;49.012;12.104;2023-02-04T07:39:23;99269.88;;;21.87;48.80
65227;BME280;51805;49.012;12.104;2023-02-04T07:41:48;99280.69;;;21.87;48.73
65227;BME280;51805;49.012;12.104;2023-02-04T07:44:13;99284.59;;;21.91;48.76
65227;BME280;51805;49.012;12.104;2023-02-04T07:46:38;99271.59;;;21.93;48.79
65227;BME280;51805;49.012;12.104;2023-02-04T07:49:03;99279.47;;;21.95;48.70
65227;BME280;51805;49.012;12.104;2023-02-04T07:51:28;99290.31;;;21.95;48.72
65227;BME280;51805;49.012;12.104;2023-02-04T07:53:54;99296.06;;;21.98;48.56
65227;BME280;51805;49.012;12.104;2023-02-04T07:56:20;99304.78;;;22.00;48.52
65227;BME280;51805;49.012;12.104;2023-02-04T07:58:45;99305.13;;;22.04;48.42
65227;BME280;51805;49.012;12.104;2023-02-04T08:01:10;99305.34;;;22.02;48.68
65227;BME280;51805;49.012;12.104;2023-02-04T08:03:35;99314.03;;;22.04;48.67
65227;BME280;51805;49.012;12.104;2023-02-04T08:06:00;99318.91;;;22.02;48.47
65227;BME280;51805;49.012;12.104;2023-02-04T08:08:25;99313.00;;;22.05;48.60
65227;BME280;51805;49.012;12.104;2023-02-04T08:10:50;99313.31;;;22.09;48.50
65227;BME280;51805;49.012;12.104;2023-02-04T08:13:16;99318.72;;;22.09;48.61
65227;BME280;51805;49.012;12.104;2023-02-04T08:15:41;99323.91;;;22.10;48.56
65227;BME280;51805;49.012;12.104;2023-02-04T08:18:06;99328.81;;;22.13;48.52
65227;BME280;51805;49.012;12.104;2023-02-04T08:20:31;99331.53;;;22.13;48.64
65227;BME280;51805;49.012;12.104;2023-02-04T08:22:56;99337.78;;;22.14;48.41
65227;BME280;51805;49.012;12.104;2023-02-04T08:25:23;99333.75;;;22.16;48.56
65227;BME280;51805;49.012;12.104;2023-02-04T08:27:48;99363.06;;;22.19;48.54
65227;BME280;51805;49.012;12.104;2023-02-04T08:30:14;99354.94;;;22.19;48.61
65227;BME280;51805;49.012;12.104;2023-02-04T08:32:39;99350.94;;;22.22;48.41
65227;BME280;51805;49.012;12.104;2023-02-04T08:35:05;99343.63;;;22.22;48.54
65227;BME280;51805;49.012;12.104;2023-02-04T08:37:30;99357.72;;;22.24;48.46
65227;BME280;51805;49.012;12.104;2023-02-04T08:39:55;99351.25;;;22.25;48.33
65227;BME280;51805;49.012;12.104;2023-02-04T08:42:20;99366.44;;;22.26;48.45
65227;BME280;51805;49.012;12.104;2023-02-04T08:44:45;99362.41;;;22.29;48.33
65227;BME280;51805;49.012;12.104;2023-02-04T08:47:10;99364.06;;;22.30;48.32
65227;BME280;51805;49.012;12.104;2023-02-04T08:49:36;99359.47;;;22.30;48.28
65227;BME280;51805;49.012;12.104;2023-02-04T08:52:01;99363.34;;;22.34;48.21
65227;BME280;51805;49.012;12.104;2023-02-04T08:54:26;99353.88;;;22.37;48.32
65227;BME280;51805;49.012;12.104;2023-02-04T08:56:52;99367.28;;;22.43;48.39
65227;BME280;51805;49.012;12.104;2023-02-04T08:59:17;99365.22;;;22.50;48.49
65227;BME280;51805;49.012;12.104;2023-02-04T09:01:42;99378.06;;;22.55;48.42
65227;BME280;51805;49.012;12.104;2023-02-04T09:04:07;99385.16;;;22.56;48.87
65227;BME280;51805;49.012;12.104;2023-02-04T09:06:32;99385.81;;;22.63;48.53
65227;BME280;51805;49.012;12.104;2023-02-04T09:08:57;99383.09;;;22.63;48.76
65227;BME280;51805;49.012;12.104;2023-02-04T09:11:22;99396.16;;;22.66;48.86
65227;BME280;51805;49.012;12.104;2023-02-04T09:13:47;99399.09;;;22.64;48.97
65227;BME280;51805;49.012;12.104;2023-02-04T09:16:13;99401.56;;;22.66;49.19
65227;BME280;51805;49.012;12.104;2023-02-04T09:18:38;99408.97;;;22.70;48.93
65227;BME280;51805;49.012;12.104;2023-02-04T09:21:03;99404.78;;;22.79;48.71
65227;BME280;51805;49.012;12.104;2023-02-04T09:23:28;99411.94;;;22.85;48.53
65227;BME280;51805;49.012;12.104;2023-02-04T09:25:53;99414.72;;;22.90;48.60
65227;BME280;51805;49.012;12.104;2023-02-04T09:28:18;99424.75;;;22.90;48.59
65227;BME280;51805;49.012;12.104;2023-02-04T09:30:44;99423.78;;;22.96;48.28
65227;BME280;51805;49.012;12.104;2023-02-04T09:33:10;99427.28;;;22.96;48.29
65227;BME280;51805;49.012;12.104;2023-02-04T09:35:36;99441.50;;;23.03;48.46
65227;BME280;51805;49.012;12.104;2023-02-04T09:38:01;99440.44;;;23.04;48.23
65227;BME280;51805;49.012;12.104;2023-02-04T09:40:27;99442.34;;;23.04;48.44
65227;BME280;51805;49.012;12.104;2023-02-04T09:42:53;99440.69;;;23.03;48.25
65227;BME280;51805;49.012;12.104;2023-02-04T09:45:21;99445.31;;;23.02;48.38
65227;BME280;51805;49.012;12.104;2023-02-04T09:47:47;99453.69;;;23.01;48.41
65227;BME280;51805;49.012;12.104;2023-02-04T09:50:13;99455.91;;;23.04;48.43
65227;BME280;51805;49.012;12.104;2023-02-04T09:52:38;99455.66;;;23.06;48.49
65227;BME280;51805;49.012;12.104;2023-02-04T09:55:07;99465.19;;;23.08;48.36
65227;BME280;51805;49.012;12.104;2023-02-04T09:57:32;99464.44;;;23.13;48.19
65227;BME280;51805;49.012;12.104;2023-02-04T09:59:58;99478.00;;;23.13;48.55
65227;BME280;51805;49.012;12.104;2023-02-04T10:02:24;99478.84;;;23.13;48.32
65227;BME280;51805;49.012;12.104;2023-02-04T10:04:50;99485.53;;;23.11;48.52
65227;BME280;51805;49.012;12.104;2023-02-04T10:07:16;99489.44;;;23.15;48.20
65227;BME280;51805;49.012;12.104;2023-02-04T10:09:41;99494.34;;;23.18;48.19
65227;BME280;51805;49.012;12.104;2023-02-04T10:12:07;99493.28;;;23.19;48.06
65227;BME280;51805;49.012;12.104;2023-02-04T10:14:32;99497.06;;;23.18;48.19
65227;BME280;51805;49.012;12.104;2023-02-04T10:16:58;99487.84;;;23.19;48.29
65227;BME280;51805;49.012;12.104;2023-02-04T10:19:24;99494.91;;;23.20;48.08
65227;BME280;51805;49.012;12.104;2023-02-04T10:21:50;99496.56;;;23.21;48.19
65227;BME280;51805;49.012;12.104;2023-02-04T10:24:16;99491.94;;;23.21;48.14
65227;BME280;51805;49.012;12.104;2023-02-04T10:26:42;99481.59;;;23.18;48.20
65227;BME280;51805;49.012;12.104;2023-02-04T10:29:20;99488.94;;;23.18;48.37
65227;BME280;51805;49.012;12.104;2023-02-04T10:31:47;99491.41;;;23.19;48.26
65227;BME280;51805;49.012;12.104;2023-02-04T10:34:14;99492.78;;;23.22;48.20
65227;BME280;51805;49.012;12.104;2023-02-04T10:36:40;99492.53;;;23.23;48.15
65227;BME280;51805;49.012;12.104;2023-02-04T10:39:10;99489.03;;;23.23;48.24
65227;BME280;51805;49.012;12.104;2023-02-04T10:41:36;99493.88;;;23.21;48.28
65227;BME280;51805;49.012;12.104;2023-02-04T10:44:05;99491.94;;;23.21;48.27
65227;BME280;51805;49.012;12.104;2023-02-04T10:46:31;99481.34;;;23.20;48.30
65227;BME280;51805;49.012;12.104;2023-02-04T10:48:56;99486.31;;;23.23;48.16
65227;BME280;51805;49.012;12.104;2023-02-04T10:51:21;99486.91;;;23.25;48.16
65227;BME280;51805;49.012;12.104;2023-02-04T10:53:47;99490.44;;;23.25;48.10
65227;BME280;51805;49.012;12.104;2023-02-04T10:56:16;99495.50;;;23.22;48.02
65227;BME280;51805;49.012;12.104;2023-02-04T10:58:42;99496.56;;;23.21;48.08
65227;BME280;51805;49.012;12.104;2023-02-04T11:01:10;99499.78;;;23.18;48.19
65227;BME280;51805;49.012;12.104;2023-02-04T11:03:36;99487.84;;;23.19;48.06
65227;BME280;51805;49.012;12.104;2023-02-04T11:06:04;99491.06;;;23.16;48.24
65227;BME280;51805;49.012;12.104;2023-02-04T11:08:33;99490.47;;;23.14;48.28
65227;BME280;51805;49.012;12.104;2023-02-04T11:11:08;99501.81;;;23.11;48.59
65227;BME280;51805;49.012;12.104;2023-02-04T11:13:40;99499.69;;;23.13;48.92
65227;BME280;51805;49.012;12.104;2023-02-04T11:16:07;99499.19;;;23.16;49.04
65227;BME280;51805;49.012;12.104;2023-02-04T11:18:42;99498.13;;;23.17;48.85
65227;BME280;51805;49.012;12.104;2023-02-04T11:21:12;99500.53;;;23.13;49.07
65227;BME280;51805;49.012;12.104;2023-02-04T11:23:38;99490.16;;;23.10;49.07
65227;BME280;51805;49.012;12.104;2023-02-04T11:26:04;99493.13;;;23.09;48.96
65227;BME280;51805;49.012;12.104;2023-02-04T11:28:37;99499.69;;;23.13;48.80
65227;BME280;51805;49.012;12.104;2023-02-04T11:31:02;99491.81;;;23.11;48.90
65227;BME280;51805;49.012;12.104;2023-02-04T11:33:37;99492.13;;;23.15;48.65
65227;BME280;51805;49.012;12.104;2023-02-04T11:36:03;99492.63;;;23.12;48.74
65227;BME280;51805;49.012;12.104;2023-02-04T11:38:29;99491.31;;;23.14;48.65
65227;BME280;51805;49.012;12.104;2023-02-04T11:40:55;99488.59;;;23.14;48.59
65227;BME280;51805;49.012;12.104;2023-02-04T11:43:21;99501.31;;;23.14;48.55
65227;BME280;51805;49.012;12.104;2023-02-04T11:45:46;99503.00;;;23.15;48.46
65227;BME280;51805;49.012;12.104;2023-02-04T11:48:13;99506.19;;;23.12;48.63
65227;BME280;51805;49.012;12.104;2023-02-04T11:50:39;99511.03;;;23.10;48.61
65227;BME280;51805;49.012;12.104;2023-02-04T11:53:04;99512.41;;;23.12;48.43
65227;BME280;51805;49.012;12.104;2023-02-04T11:55:30;99517.84;;;23.12;48.39
65227;BME280;51805;49.012;12.104;2023-02-04T11:57:55;99517.28;;;23.10;48.55
65227;BME280;51805;49.012;12.104;2023-02-04T12:00:31;99507.81;;;23.13;48.45
65227;BME280;51805;49.012;12.104;2023-02-04T12:02:57;99505.38;;;23.11;48.38
65227;BME280;51805;49.012;12.104;2023-02-04T12:05:34;99505.13;;;23.13;48.35
65227;BME280;51805;49.012;12.104;2023-02-04T12:08:07;99497.56;;;23.15;48.27
65227;BME280;51805;49.012;12.104;2023-02-04T12:10:33;99503.25;;;23.13;48.25
65227;BME280;51805;49.012;12.104;2023-02-04T12:12:58;99508.41;;;23.15;48.13
65227;BME280;51805;49.012;12.104;2023-02-04T12:15:24;99504.28;;;23.12;48.22
65227;BME280;51805;49.012;12.104;2023-02-04T12:18:03;99508.56;;;23.08;48.20
65227;BME280;51805;49.012;12.104;2023-02-04T12:20:28;99508.31;;;23.10;48.19
65227;BME280;51805;49.012;12.104;2023-02-04T12:22:53;99511.03;;;23.10;48.17
65227;BME280;51805;49.012;12.104;2023-02-04T12:25:18;99507.81;;;23.13;48.08
65227;BME280;51805;49.012;12.104;2023-02-04T12:27:43;99509.16;;;23.10;48.18
65227;BME280;51805;49.012;12.104;2023-02-04T12:30:09;99512.19;;;23.14;47.99
65227;BME280;51805;49.012;12.104;2023-02-04T12:32:34;99511.38;;;23.13;48.02
65227;BME280;51805;49.012;12.104;2023-02-04T12:34:59;99509.16;;;23.10;48.10
65227;BME280;51805;49.012;12.104;2023-02-04T12:37:24;99501.03;;;23.10;47.89
65227;BME280;51805;49.012;12.104;2023-02-04T12:39:49;99494.28;;;23.13;47.90
65227;BME280;51805;49.012;12.104;2023-02-04T12:42:15;99488.84;;;23.13;47.74
65227;BME280;51805;49.012;12.104;2023-02-04T12:44:40;99495.91;;;23.14;47.93